createdAt,value
2022-10-11T00:14:55.354Z,11.49
2022-10-11T00:30:37.725Z,11.08
2022-10-11T00:46:20.349Z,10.71
2022-10-11T01:02:02.983Z,10.41
2022-10-11T01:17:45.948Z,10.01
2022-10-11T01:33:28.770Z,9.68
2022-10-11T01:49:11.831Z,9.38
2022-10-11T02:04:54.037Z,9.18
2022-10-11T02:20:37.115Z,9.04
2022-10-11T02:36:19.654Z,8.76
2022-10-11T02:52:02.167Z,8.5
2022-10-11T03:07:44.713Z,8.22
2022-10-11T03:23:27.493Z,8.04
2022-10-11T03:39:09.869Z,7.93
2022-10-11T03:54:52.541Z,7.75
2022-10-11T04:10:34.785Z,7.64
2022-10-11T04:26:17.584Z,7.49
2022-10-11T04:42:00.519Z,7.45
2022-10-11T04:57:43.424Z,7.34
2022-10-11T05:13:25.670Z,7.34
2022-10-11T05:29:08.019Z,7.26
2022-10-11T05:44:50.235Z,7.26
2022-10-11T06:00:32.700Z,7.39
2022-10-11T06:16:15.408Z,7.62
2022-10-11T06:31:58.564Z,7.89
2022-10-11T06:47:41.070Z,8.22
2022-10-11T07:03:23.196Z,8.6
2022-10-11T07:19:05.993Z,8.97
2022-10-11T07:34:48.612Z,9.41
2022-10-11T07:50:31.089Z,9.93
2022-10-11T08:06:13.735Z,11.1
2022-10-11T08:21:55.910Z,13.52
2022-10-11T08:37:38.188Z,15.24
2022-10-11T08:53:20.322Z,16.06
2022-10-11T09:09:02.659Z,15.91
2022-10-11T09:24:44.759Z,15.74
2022-10-11T09:40:27.772Z,15.66
2022-10-11T09:56:10.037Z,16.53
2022-10-11T10:11:52.934Z,18.93
2022-10-11T10:27:35.159Z,18.74
2022-10-11T10:43:17.783Z,17.1
2022-10-11T10:59:00.655Z,16.78
2022-10-11T11:14:42.859Z,16.1
2022-10-11T11:30:25.396Z,15.58
2022-10-11T11:46:08.025Z,15.45
2022-10-11T12:01:50.269Z,14.82
2022-10-11T12:02:37.543Z,14.99
2022-10-11T12:18:20.075Z,16.68
2022-10-11T12:34:02.371Z,16.95
2022-10-11T12:49:45.282Z,22.89
2022-10-11T13:05:27.666Z,19.2
2022-10-11T13:21:10.666Z,17.07
2022-10-11T13:36:52.757Z,17.86
2022-10-11T13:52:35.177Z,17.94
2022-10-11T14:08:17.749Z,16.29
2022-10-11T14:23:59.922Z,15.92
2022-10-11T14:39:42.351Z,16.89
2022-10-11T14:55:25.161Z,16.36
2022-10-11T15:11:07.489Z,15.53
2022-10-11T15:26:49.738Z,14.8
2022-10-11T15:42:32.368Z,14.21
2022-10-11T15:58:15.020Z,13.62
2022-10-11T16:13:57.144Z,13.01
2022-10-11T16:29:39.995Z,12.18
2022-10-11T16:45:23.063Z,11.22
2022-10-11T17:01:05.485Z,10.37
2022-10-11T17:16:48.102Z,9.68
2022-10-11T17:32:30.819Z,9.16
2022-10-11T17:48:12.963Z,8.7
2022-10-11T18:03:55.648Z,8.31
2022-10-11T18:19:38.111Z,7.95
2022-10-11T18:35:20.250Z,7.66
2022-10-11T18:51:02.777Z,7.37
2022-10-11T19:06:45.724Z,7.11
2022-10-11T19:22:28.690Z,6.91
2022-10-11T19:38:11.212Z,6.7
2022-10-11T19:53:54.215Z,6.46
2022-10-11T20:09:36.595Z,6.26
2022-10-11T20:25:19.738Z,6.11
2022-10-11T20:41:01.879Z,5.96
2022-10-11T20:56:45.006Z,5.79
2022-10-11T21:12:27.860Z,5.62
2022-10-11T21:28:10.000Z,5.49
2022-10-11T21:43:53.022Z,5.32
2022-10-11T21:59:35.217Z,5.21
2022-10-11T22:15:18.244Z,5.04
2022-10-11T22:31:01.102Z,4.92
2022-10-11T22:46:43.230Z,4.8
2022-10-11T23:02:25.477Z,4.66
2022-10-11T23:18:08.537Z,4.58
2022-10-11T23:33:51.550Z,4.46
2022-10-11T23:49:34.056Z,4.35
